createdAt,value
2023-04-04T00:01:43.424Z,101385.73
2023-04-04T00:04:14.477Z,101383.08
2023-04-04T00:06:45.268Z,101380.68
2023-04-04T00:09:15.259Z,101377.20
2023-04-04T00:11:44.009Z,101378.41
2023-04-04T00:14:13.888Z,101379.27
2023-04-04T00:16:45.041Z,101376.79
2023-04-04T00:19:17.879Z,101376.39
2023-04-04T00:21:47.210Z,101367.13
2023-04-04T00:24:17.449Z,101365.86
2023-04-04T00:26:46.542Z,101366.01
2023-04-04T00:29:16.812Z,101362.67
2023-04-04T00:31:45.759Z,101365.65
2023-04-04T00:34:16.284Z,101367.43
2023-04-04T00:36:45.948Z,101365.18
2023-04-04T00:39:16.809Z,101360.80
2023-04-04T00:41:48.282Z,101356.97
2023-04-04T00:44:18.453Z,101356.08
2023-04-04T00:46:47.225Z,101351.71
2023-04-04T00:49:16.001Z,101352.16
2023-04-04T00:51:44.802Z,101350.73
2023-04-04T00:54:15.129Z,101344.63
2023-04-04T00:56:43.850Z,101344.83
2023-04-04T00:59:13.966Z,101343.31
2023-04-04T01:01:42.631Z,101341.30
2023-04-04T01:04:14.996Z,101336.59
2023-04-04T01:06:45.259Z,101335.92
2023-04-04T01:09:15.347Z,101327.95
2023-04-04T01:11:44.673Z,101322.89
2023-04-04T01:14:14.771Z,101317.63
2023-04-04T01:16:44.933Z,101315.09
2023-04-04T01:19:24.481Z,101313.25
2023-04-04T01:21:55.214Z,101310.35
2023-04-04T01:24:25.886Z,101309.72
2023-04-04T01:27:00.198Z,101311.39
2023-04-04T01:29:30.205Z,101306.98
2023-04-04T01:32:08.919Z,101309.70
2023-04-04T01:34:47.740Z,101310.38
2023-04-04T01:37:23.943Z,101307.70
2023-04-04T01:39:57.435Z,101301.58
2023-04-04T01:42:27.455Z,101300.08
2023-04-04T01:44:58.323Z,101300.36
2023-04-04T01:47:40.937Z,101309.29
2023-04-04T01:50:14.282Z,101306.54
2023-04-04T01:52:44.093Z,101306.02
2023-04-04T01:55:18.833Z,101307.11
2023-04-04T01:57:49.074Z,101308.92
2023-04-04T02:00:18.860Z,101307.92
2023-04-04T02:02:47.696Z,101308.34
2023-04-04T02:05:17.231Z,101307.17
2023-04-04T02:07:49.588Z,101307.82
2023-04-04T02:10:24.671Z,101311.05
2023-04-04T02:12:54.346Z,101310.98
2023-04-04T02:15:26.003Z,101314.77
2023-04-04T02:17:55.415Z,101313.65
2023-04-04T02:20:24.401Z,101315.81
2023-04-04T02:22:54.179Z,101317.27
2023-04-04T02:25:24.692Z,101316.07
2023-04-04T02:27:53.743Z,101312.25
2023-04-04T02:30:25.051Z,101315.38
2023-04-04T02:32:57.791Z,101313.46
2023-04-04T02:35:27.111Z,101312.61
2023-04-04T02:37:55.825Z,101313.19
2023-04-04T02:40:27.567Z,101311.19
2023-04-04T02:42:56.300Z,101312.14
2023-04-04T02:45:27.527Z,101314.83
2023-04-04T02:48:07.245Z,101320.10
2023-04-04T02:50:42.403Z,101321.22
2023-04-04T02:53:13.789Z,101328.64
2023-04-04T02:55:42.802Z,101330.44
2023-04-04T02:58:15.090Z,101332.01
2023-04-04T03:00:44.097Z,101334.26
2023-04-04T03:03:14.165Z,101332.91
2023-04-04T03:05:45.715Z,101328.84
2023-04-04T03:08:16.623Z,101327.00
2023-04-04T03:10:46.620Z,101328.41
2023-04-04T03:13:15.845Z,101330.03
2023-04-04T03:15:47.417Z,101333.27
2023-04-04T03:18:18.523Z,101328.67
2023-04-04T03:20:47.218Z,101330.46
2023-04-04T03:23:18.340Z,101325.80
2023-04-04T03:25:47.035Z,101327.43
2023-04-04T03:28:16.363Z,101323.64
2023-04-04T03:30:45.088Z,101320.69
2023-04-04T03:33:16.694Z,101321.02
2023-04-04T03:35:46.053Z,101317.41
2023-04-04T03:38:17.016Z,101315.89
2023-04-04T03:40:46.025Z,101315.25
2023-04-04T03:43:17.242Z,101316.89
2023-04-04T03:45:48.990Z,101315.62
2023-04-04T03:48:17.976Z,101314.63
2023-04-04T03:50:47.092Z,101316.11
2023-04-04T03:53:16.297Z,101319.67
2023-04-04T03:55:45.361Z,101320.45
2023-04-04T03:58:17.028Z,101320.49
2023-04-04T04:00:47.569Z,101324.66
2023-04-04T04:03:18.107Z,101323.98
2023-04-04T04:05:48.093Z,101327.06
2023-04-04T04:08:16.794Z,101328.56
2023-04-04T04:10:45.657Z,101328.77
2023-04-04T04:13:16.416Z,101327.35
2023-04-04T04:15:46.135Z,101325.69
2023-04-04T04:18:19.201Z,101325.05
2023-04-04T04:20:52.557Z,101322.46
2023-04-04T04:23:22.473Z,101324.21
2023-04-04T04:25:52.927Z,101325.92
2023-04-04T04:28:24.483Z,101323.63
2023-04-04T04:31:06.996Z,101320.98
2023-04-04T04:33:37.563Z,101321.27
2023-04-04T04:36:08.447Z,101320.49
2023-04-04T04:39:00.946Z,101322.81
2023-04-04T04:41:31.815Z,101316.78
2023-04-04T04:44:03.008Z,101311.55
2023-04-04T04:46:32.609Z,101306.05
2023-04-04T04:49:02.957Z,101307.10
2023-04-04T04:51:33.074Z,101308.66
2023-04-04T04:54:02.451Z,101307.27
2023-04-04T04:56:32.410Z,101310.48
2023-04-04T04:59:08.594Z,101312.60
2023-04-04T05:01:38.642Z,101311.30
2023-04-04T05:04:07.698Z,101313.38
2023-04-04T05:06:43.711Z,101309.31
2023-04-04T05:09:15.105Z,101307.76
2023-04-04T05:11:44.462Z,101306.77
2023-04-04T05:14:15.518Z,101305.55
2023-04-04T05:16:51.964Z,101307.09
2023-04-04T05:19:21.050Z,101304.64
2023-04-04T05:21:53.422Z,101302.00
2023-04-04T05:24:30.532Z,101306.01
2023-04-04T05:27:00.556Z,101298.95
2023-04-04T05:29:35.398Z,101295.46
2023-04-04T05:32:05.323Z,101293.02
2023-04-04T05:34:34.890Z,101295.61
2023-04-04T05:37:06.500Z,101300.52
2023-04-04T05:39:37.223Z,101303.45
2023-04-04T05:42:08.052Z,101301.44
2023-04-04T05:44:39.311Z,101303.87
2023-04-04T05:47:08.323Z,101302.96
2023-04-04T05:49:37.372Z,101310.95
2023-04-04T05:52:06.939Z,101308.98
2023-04-04T05:54:36.066Z,101306.65
2023-04-04T05:57:07.891Z,101304.07
2023-04-04T05:59:42.298Z,101305.00
2023-04-04T06:02:13.846Z,101307.29
2023-04-04T06:04:47.898Z,101308.72
2023-04-04T06:07:21.400Z,101305.40
2023-04-04T06:09:52.163Z,101306.66
2023-04-04T06:12:21.322Z,101300.95
2023-04-04T06:14:52.031Z,101303.95
2023-04-04T06:17:23.574Z,101301.20
2023-04-04T06:19:54.643Z,101297.80
2023-04-04T06:22:24.023Z,101298.45
2023-04-04T06:24:55.399Z,101299.11
2023-04-04T06:27:25.707Z,101297.79
2023-04-04T06:29:55.485Z,101290.10
2023-04-04T06:32:25.781Z,101282.31
2023-04-04T06:34:55.212Z,101283.55
2023-04-04T06:37:55.854Z,101286.35
2023-04-04T06:40:26.163Z,101281.34
2023-04-04T06:42:57.587Z,101280.59
2023-04-04T06:45:32.926Z,101277.17
2023-04-04T06:48:01.946Z,101277.02
2023-04-04T06:50:32.214Z,101274.02
2023-04-04T06:53:02.886Z,101271.21
2023-04-04T06:55:33.591Z,101270.63
2023-04-04T06:58:02.404Z,101265.58
2023-04-04T07:00:31.308Z,101266.85
2023-04-04T07:03:00.796Z,101271.15
2023-04-04T07:05:31.649Z,101268.69
2023-04-04T07:08:00.115Z,101267.76
2023-04-04T07:10:28.753Z,101264.60
2023-04-04T07:12:57.337Z,101267.13
2023-04-04T07:15:27.520Z,101267.84
2023-04-04T07:17:57.009Z,101269.88
2023-04-04T07:20:27.957Z,101268.80
2023-04-04T07:22:56.558Z,101264.48
2023-04-04T07:25:25.479Z,101267.98
2023-04-04T07:28:02.295Z,101271.92
2023-04-04T07:30:35.056Z,101269.34
2023-04-04T07:33:04.550Z,101269.33
2023-04-04T07:35:34.761Z,101264.77
2023-04-04T07:38:04.430Z,101263.06
2023-04-04T07:40:33.220Z,101261.93
2023-04-04T07:43:02.057Z,101262.56
2023-04-04T07:45:30.599Z,101261.80
2023-04-04T07:47:59.528Z,101259.02
2023-04-04T07:50:28.476Z,101260.42
2023-04-04T07:52:58.188Z,101259.09
2023-04-04T07:55:26.981Z,101257.91
2023-04-04T07:57:55.818Z,101259.20
2023-04-04T08:00:25.949Z,101252.55
2023-04-04T08:02:55.250Z,101249.34
2023-04-04T08:05:24.328Z,101249.98
2023-04-04T08:07:52.770Z,101247.39
2023-04-04T08:10:21.469Z,101244.95
2023-04-04T08:12:50.239Z,101243.05
2023-04-04T08:15:19.137Z,101240.72
2023-04-04T08:17:47.896Z,101244.95
2023-04-04T08:20:16.990Z,101239.80
2023-04-04T08:22:45.624Z,101240.23
2023-04-04T08:25:16.947Z,101233.69
2023-04-04T08:27:45.451Z,101230.38
2023-04-04T08:30:15.724Z,101224.91
2023-04-04T08:32:45.430Z,101223.25
2023-04-04T08:35:17.253Z,101218.07
2023-04-04T08:37:46.300Z,101223.80
2023-04-04T08:40:16.459Z,101219.04
2023-04-04T08:42:46.526Z,101216.59
2023-04-04T08:45:18.935Z,101217.31
2023-04-04T08:47:50.565Z,101217.10
2023-04-04T08:50:20.903Z,101214.88
2023-04-04T08:52:49.952Z,101212.59
2023-04-04T08:55:19.666Z,101207.02
2023-04-04T08:57:49.043Z,101207.29
2023-04-04T09:00:20.919Z,101212.06
2023-04-04T09:02:57.844Z,101211.94
2023-04-04T09:05:27.891Z,101212.52
2023-04-04T09:07:57.657Z,101207.52
2023-04-04T09:10:27.362Z,101201.49
2023-04-04T09:13:12.371Z,101201.99
2023-04-04T09:15:46.234Z,101206.16
2023-04-04T09:18:15.425Z,101206.34
2023-04-04T09:20:45.676Z,101209.52
2023-04-04T09:23:16.881Z,101210.23
2023-04-04T09:28:23.436Z,101204.36
2023-04-04T09:30:53.151Z,101208.29
2023-04-04T09:33:24.138Z,101207.92
2023-04-04T09:35:58.130Z,101212.82
2023-04-04T09:38:28.988Z,101214.75
2023-04-04T09:40:58.688Z,101212.42
2023-04-04T09:43:30.218Z,101212.40
2023-04-04T09:46:00.193Z,101212.84
2023-04-04T09:48:32.440Z,101211.23
2023-04-04T09:51:05.656Z,101217.77
2023-04-04T09:53:37.408Z,101222.77
2023-04-04T09:56:07.856Z,101214.95
2023-04-04T09:58:44.135Z,101219.23
2023-04-04T10:01:19.475Z,101219.34
2023-04-04T10:03:54.052Z,101221.65
2023-04-04T10:06:26.844Z,101219.60
2023-04-04T10:08:58.790Z,101214.50
2023-04-04T10:11:32.908Z,101219.98
2023-04-04T10:14:03.646Z,101218.08
2023-04-04T10:16:36.540Z,101223.55
2023-04-04T10:19:07.379Z,101219.66
2023-04-04T10:21:36.574Z,101221.70
2023-04-04T10:24:09.591Z,101223.23
2023-04-04T10:26:41.842Z,101213.66
2023-04-04T10:29:10.856Z,101213.61
2023-04-04T10:31:44.208Z,101217.43
2023-04-04T10:34:25.401Z,101220.36
2023-04-04T10:36:58.836Z,101221.65
2023-04-04T10:39:33.815Z,101216.81
2023-04-04T10:42:06.660Z,101215.66
2023-04-04T10:44:39.785Z,101211.04
2023-04-04T10:47:17.213Z,101211.96
2023-04-04T10:49:47.918Z,101206.63
2023-04-04T10:52:18.952Z,101206.42
2023-04-04T10:54:49.938Z,101202.73
2023-04-04T10:57:19.220Z,101198.67
2023-04-04T10:59:57.874Z,101198.69
2023-04-04T11:02:50.611Z,101196.17
2023-04-04T11:05:24.588Z,101196.80
2023-04-04T11:10:33.987Z,101193.45
2023-04-04T11:13:13.320Z,101194.98
2023-04-04T11:15:57.349Z,101197.81
2023-04-04T11:18:46.428Z,101193.23
2023-04-04T11:21:18.309Z,101189.68
2023-04-04T11:24:16.525Z,101191.30
2023-04-04T11:26:46.993Z,101192.26
2023-04-04T11:29:42.171Z,101191.19
2023-04-04T11:32:29.546Z,101183.97
2023-04-04T11:34:58.293Z,101183.05
2023-04-04T11:37:31.241Z,101186.73
2023-04-04T11:40:13.117Z,101183.31
2023-04-04T11:42:42.707Z,101185.60
2023-04-04T11:45:20.100Z,101190.33
2023-04-04T11:47:50.814Z,101184.83
2023-04-04T11:50:20.421Z,101187.66
2023-04-04T11:52:52.707Z,101187.70
2023-04-04T11:55:23.238Z,101188.89
2023-04-04T11:57:54.345Z,101187.80
2023-04-04T12:00:34.413Z,101189.91
2023-04-04T12:03:05.037Z,101193.22
2023-04-04T12:05:34.414Z,101192.09
2023-04-04T12:08:04.252Z,101190.38
2023-04-04T12:10:36.827Z,101185.40
2023-04-04T12:13:07.766Z,101177.85
2023-04-04T12:15:37.858Z,101173.84
2023-04-04T12:18:09.310Z,101178.15
2023-04-04T12:20:41.699Z,101176.27
2023-04-04T12:23:10.535Z,101174.15
2023-04-04T12:25:43.588Z,101174.63
2023-04-04T12:28:14.339Z,101181.24
2023-04-04T12:30:43.235Z,101183.71
2023-04-04T12:33:12.803Z,101182.33
2023-04-04T12:35:50.449Z,101176.38
2023-04-04T12:38:19.652Z,101175.41
2023-04-04T12:40:51.116Z,101173.81
2023-04-04T12:43:20.495Z,101174.76
2023-04-04T12:45:53.974Z,101178.58
2023-04-04T12:48:28.236Z,101177.17
2023-04-04T12:50:58.897Z,101175.06
2023-04-04T12:53:29.950Z,101173.75
2023-04-04T12:56:04.080Z,101167.16
2023-04-04T12:58:34.280Z,101166.49
2023-04-04T13:01:07.758Z,101165.73
2023-04-04T13:03:37.292Z,101162.76
2023-04-04T13:06:14.396Z,101158.88
2023-04-04T13:08:53.335Z,101161.64
2023-04-04T13:11:26.924Z,101162.41
2023-04-04T13:14:03.593Z,101160.74
2023-04-04T13:16:36.650Z,101161.20
2023-04-04T13:19:05.644Z,101155.54
2023-04-04T13:21:35.880Z,101159.67
2023-04-04T13:24:05.493Z,101161.97
2023-04-04T13:26:34.218Z,101160.30
2023-04-04T13:29:02.815Z,101158.55
2023-04-04T13:31:31.886Z,101157.63
2023-04-04T13:34:00.520Z,101159.42
2023-04-04T13:36:29.544Z,101162.30
2023-04-04T13:38:58.172Z,101157.48
2023-04-04T13:41:29.330Z,101156.60
2023-04-04T13:43:58.242Z,101155.91
2023-04-04T13:46:27.371Z,101153.98
2023-04-04T13:48:56.373Z,101153.68
2023-04-04T13:51:26.222Z,101154.02
2023-04-04T13:53:54.698Z,101152.38
2023-04-04T13:56:28.066Z,101150.73
2023-04-04T13:58:57.509Z,101153.05
2023-04-04T14:01:26.734Z,101149.11
2023-04-04T14:03:55.834Z,101146.61
2023-04-04T14:06:26.675Z,101147.25
2023-04-04T14:08:56.683Z,101149.99
2023-04-04T14:11:30.639Z,101150.02
2023-04-04T14:13:59.155Z,101152.47
2023-04-04T14:16:28.002Z,101155.75
2023-04-04T14:18:57.425Z,101151.13
2023-04-04T14:21:26.135Z,101153.19
2023-04-04T14:23:55.262Z,101152.16
2023-04-04T14:26:28.040Z,101154.98
2023-04-04T14:28:56.909Z,101152.02
2023-04-04T14:31:27.162Z,101146.13
2023-04-04T14:33:55.689Z,101138.73
2023-04-04T14:36:25.559Z,101137.30
2023-04-04T14:38:54.938Z,101133.60
2023-04-04T14:41:31.483Z,101130.31
2023-04-04T14:44:00.485Z,101134.45
2023-04-04T14:46:30.336Z,101135.91
2023-04-04T14:49:02.854Z,101138.15
2023-04-04T14:51:32.132Z,101138.89
2023-04-04T14:54:00.761Z,101139.27
2023-04-04T14:56:30.993Z,101141.11
2023-04-04T14:59:05.005Z,101142.05
2023-04-04T15:01:33.978Z,101144.52
2023-04-04T15:04:03.801Z,101142.02
2023-04-04T15:06:35.759Z,101138.24
2023-04-04T15:09:06.042Z,101135.55
2023-04-04T15:11:35.487Z,101130.64
2023-04-04T15:14:04.592Z,101130.44
2023-04-04T15:16:35.458Z,101130.67
2023-04-04T15:19:04.114Z,101127.71
2023-04-04T15:21:33.039Z,101122.77
2023-04-04T15:24:01.726Z,101120.95
2023-04-04T15:26:30.951Z,101118.86
2023-04-04T15:29:00.101Z,101118.08
2023-04-04T15:31:30.155Z,101119.73
2023-04-04T15:34:01.989Z,101118.54
2023-04-04T15:36:33.483Z,101115.80
2023-04-04T15:39:03.023Z,101115.30
2023-04-04T15:41:32.640Z,101116.09
2023-04-04T15:44:01.639Z,101117.96
2023-04-04T15:46:34.327Z,101116.48
2023-04-04T15:49:03.637Z,101116.38
2023-04-04T15:51:32.904Z,101117.64
2023-04-04T15:54:01.916Z,101115.98
2023-04-04T15:56:31.849Z,101114.71
2023-04-04T15:59:00.622Z,101118.48
2023-04-04T16:01:32.493Z,101116.89
2023-04-04T16:04:01.377Z,101112.30
2023-04-04T16:06:31.297Z,101116.33
2023-04-04T16:09:05.026Z,101119.98
2023-04-04T16:11:34.074Z,101122.90
2023-04-04T16:14:02.948Z,101126.37
2023-04-04T16:16:33.207Z,101125.16
2023-04-04T16:19:02.160Z,101122.47
2023-04-04T16:21:31.682Z,101126.46
2023-04-04T16:24:03.308Z,101125.27
2023-04-04T16:26:32.896Z,101128.58
2023-04-04T16:29:02.756Z,101126.08
2023-04-04T16:31:32.405Z,101124.34
2023-04-04T16:34:01.409Z,101126.16
2023-04-04T16:36:30.497Z,101127.63
2023-04-04T16:38:59.390Z,101125.77
2023-04-04T16:41:33.522Z,101130.36
2023-04-04T16:44:02.073Z,101131.27
2023-04-04T16:46:31.180Z,101132.84
2023-04-04T16:49:00.107Z,101130.36
2023-04-04T16:51:31.132Z,101128.30
2023-04-04T16:54:00.212Z,101125.56
2023-04-04T16:56:32.079Z,101127.40
2023-04-04T16:59:01.244Z,101123.34
2023-04-04T17:01:35.835Z,101126.42
2023-04-04T17:04:05.208Z,101122.91
2023-04-04T17:06:34.229Z,101124.28
2023-04-04T17:09:03.049Z,101127.70
2023-04-04T17:11:31.852Z,101129.64
2023-04-04T17:14:00.544Z,101129.30
2023-04-04T17:16:30.446Z,101129.83
2023-04-04T17:18:59.761Z,101124.42
2023-04-04T17:21:28.719Z,101124.23
2023-04-04T17:23:59.291Z,101119.88
2023-04-04T17:26:31.035Z,101121.59
2023-04-04T17:28:59.712Z,101125.06
2023-04-04T17:31:30.226Z,101127.98
2023-04-04T17:34:00.583Z,101128.39
2023-04-04T17:36:31.869Z,101131.41
2023-04-04T17:39:00.513Z,101131.11
2023-04-04T17:41:33.259Z,101135.49
2023-04-04T17:44:01.867Z,101136.98
2023-04-04T17:46:31.718Z,101136.53
2023-04-04T17:49:01.206Z,101138.38
2023-04-04T17:51:30.287Z,101145.44
2023-04-04T17:54:01.728Z,101141.00
2023-04-04T17:56:31.871Z,101143.89
2023-04-04T17:59:01.144Z,101141.70
2023-04-04T18:01:32.128Z,101145.11
2023-04-04T18:04:00.905Z,101145.90
2023-04-04T18:06:30.038Z,101145.63
2023-04-04T18:08:59.372Z,101152.56
2023-04-04T18:11:33.585Z,101149.86
2023-04-04T18:14:03.459Z,101153.05
2023-04-04T18:16:38.346Z,101151.50
2023-04-04T18:19:09.311Z,101152.27
2023-04-04T18:21:39.814Z,101154.55
2023-04-04T18:24:11.352Z,101152.84
2023-04-04T18:26:44.648Z,101156.73
2023-04-04T18:29:21.570Z,101160.25
2023-04-04T18:31:53.531Z,101160.33
2023-04-04T18:34:27.236Z,101158.95
2023-04-04T18:36:55.920Z,101158.48
2023-04-04T18:39:24.706Z,101164.09
2023-04-04T18:41:56.039Z,101161.38
2023-04-04T18:44:30.617Z,101159.50
2023-04-04T18:47:04.777Z,101162.88
2023-04-04T18:49:33.791Z,101158.57
2023-04-04T18:52:03.256Z,101160.23
2023-04-04T18:54:31.931Z,101163.97
2023-04-04T18:57:10.485Z,101162.84
2023-04-04T18:59:42.468Z,101160.46
2023-04-04T19:02:18.461Z,101157.23
2023-04-04T19:05:00.255Z,101156.33
2023-04-04T19:07:36.048Z,101158.91
2023-04-04T19:10:18.076Z,101155.03
2023-04-04T19:12:57.048Z,101159.34
2023-04-04T19:15:36.213Z,101158.18
2023-04-04T19:18:23.366Z,101156.95
2023-04-04T19:20:59.310Z,101156.14
2023-04-04T19:23:37.327Z,101159.50
2023-04-04T19:26:18.003Z,101161.06
2023-04-04T19:28:54.755Z,101156.64
2023-04-04T19:31:33.860Z,101156.36
2023-04-04T19:34:09.898Z,101161.84
2023-04-04T19:36:46.818Z,101163.48
2023-04-04T19:39:24.160Z,101160.52
2023-04-04T19:41:58.441Z,101159.00
2023-04-04T19:44:39.757Z,101159.44
2023-04-04T19:47:20.159Z,101159.55
2023-04-04T19:49:52.410Z,101157.64
2023-04-04T19:52:23.990Z,101159.55
2023-04-04T19:54:52.610Z,101155.55
2023-04-04T19:57:22.920Z,101157.70
2023-04-04T20:00:01.037Z,101159.77
2023-04-04T20:02:56.365Z,101162.17
2023-04-04T20:05:56.411Z,101161.98
2023-04-04T20:08:36.840Z,101160.29
2023-04-04T20:11:06.729Z,101163.30
2023-04-04T20:13:40.008Z,101162.15
2023-04-04T20:16:11.676Z,101163.02
2023-04-04T20:18:43.401Z,101165.40
2023-04-04T20:21:15.637Z,101167.49
2023-04-04T20:23:47.847Z,101166.94
2023-04-04T20:26:44.583Z,101165.48
2023-04-04T20:29:16.504Z,101167.39
2023-04-04T20:31:46.912Z,101168.14
2023-04-04T20:34:36.880Z,101165.69
2023-04-04T20:37:09.421Z,101165.17
2023-04-04T20:39:41.101Z,101169.77
2023-04-04T20:42:19.492Z,101169.63
2023-04-04T20:44:48.493Z,101166.17
2023-04-04T20:47:44.097Z,101166.80
2023-04-04T20:50:45.158Z,101164.92
2023-04-04T20:53:21.415Z,101160.92
2023-04-04T20:55:50.396Z,101162.38
2023-04-04T20:58:30.754Z,101158.34
2023-04-04T21:01:00.850Z,101158.95
2023-04-04T21:03:51.252Z,101161.48
2023-04-04T21:06:28.075Z,101162.38
2023-04-04T21:08:56.788Z,101159.95
2023-04-04T21:11:30.191Z,101159.35
2023-04-04T21:14:00.730Z,101154.81
2023-04-04T21:16:29.491Z,101152.25
2023-04-04T21:18:58.799Z,101155.29
2023-04-04T21:21:26.973Z,101153.87
2023-04-04T21:23:55.425Z,101152.14
2023-04-04T21:26:27.753Z,101148.77
2023-04-04T21:28:56.363Z,101153.90
2023-04-04T21:31:25.138Z,101152.21
2023-04-04T21:33:54.289Z,101150.53
2023-04-04T21:36:29.329Z,101154.88
2023-04-04T21:38:58.858Z,101155.09
2023-04-04T21:41:27.528Z,101152.55
2023-04-04T21:43:56.354Z,101155.58
2023-04-04T21:46:24.934Z,101156.52
2023-04-04T21:48:53.298Z,101158.28
2023-04-04T21:51:22.314Z,101156.83
2023-04-04T21:53:50.370Z,101153.23
2023-04-04T21:56:18.482Z,101153.89
2023-04-04T21:58:47.337Z,101154.15
2023-04-04T22:01:16.307Z,101156.67
2023-04-04T22:03:47.300Z,101158.70
2023-04-04T22:06:16.871Z,101159.52
2023-04-04T22:08:44.887Z,101156.29
2023-04-04T22:11:14.552Z,101158.09
2023-04-04T22:13:46.467Z,101154.86
2023-04-04T22:16:18.551Z,101150.27
2023-04-04T22:18:51.686Z,101147.48
2023-04-04T22:21:25.275Z,101147.88
2023-04-04T22:23:54.099Z,101147.29
2023-04-04T22:26:31.491Z,101147.61
2023-04-04T22:29:04.765Z,101149.16
2023-04-04T22:31:33.876Z,101148.09
2023-04-04T22:34:02.701Z,101145.85
2023-04-04T22:36:30.291Z,101146.93
2023-04-04T22:39:00.149Z,101147.34
2023-04-04T22:41:30.312Z,101145.81
2023-04-04T22:43:59.471Z,101142.42
2023-04-04T22:46:28.217Z,101144.26
2023-04-04T22:49:03.880Z,101145.86
2023-04-04T22:51:42.240Z,101147.38
2023-04-04T22:54:10.060Z,101144.23
2023-04-04T22:56:37.749Z,101141.11
2023-04-04T22:59:05.652Z,101141.69
2023-04-04T23:01:33.264Z,101144.49
2023-04-04T23:04:01.207Z,101143.61
2023-04-04T23:06:29.223Z,101139.54
2023-04-04T23:08:56.899Z,101137.66
2023-04-04T23:11:26.590Z,101132.70
2023-04-04T23:13:56.679Z,101135.41
2023-04-04T23:16:26.286Z,101129.77
2023-04-04T23:18:55.323Z,101130.23
2023-04-04T23:21:24.405Z,101126.12
2023-04-04T23:23:52.228Z,101124.69
2023-04-04T23:26:19.863Z,101123.27
2023-04-04T23:28:47.634Z,101122.55
2023-04-04T23:31:16.370Z,101120.81
2023-04-04T23:33:44.925Z,101115.86
2023-04-04T23:36:12.467Z,101113.79
2023-04-04T23:38:41.428Z,101111.03
2023-04-04T23:41:09.204Z,101108.55
2023-04-04T23:43:38.034Z,101106.83
2023-04-04T23:46:07.155Z,101106.56
2023-04-04T23:48:36.229Z,101105.71
2023-04-04T23:51:04.045Z,101107.56
2023-04-04T23:53:31.746Z,101109.41
2023-04-04T23:56:00.024Z,101102.73
2023-04-04T23:58:29.201Z,101101.60
